createdAt,value
2023-05-19T00:02:00.300Z,8.93
2023-05-19T00:04:27.749Z,8.71
2023-05-19T00:06:54.699Z,8.77
2023-05-19T00:09:21.550Z,8.58
2023-05-19T00:11:48.356Z,8.76
2023-05-19T00:14:15.339Z,8.60
2023-05-19T00:16:42.826Z,8.81
2023-05-19T00:19:12.407Z,8.77
2023-05-19T00:21:39.106Z,8.85
2023-05-19T00:24:06.371Z,8.73
2023-05-19T00:26:33.062Z,8.74
2023-05-19T00:28:59.804Z,8.74
2023-05-19T00:31:26.375Z,8.74
2023-05-19T00:33:52.856Z,8.92
2023-05-19T00:36:19.414Z,8.70
2023-05-19T00:38:45.898Z,8.65
2023-05-19T00:41:12.438Z,8.70
2023-05-19T00:43:39.063Z,8.69
2023-05-19T00:46:05.600Z,8.65
2023-05-19T00:48:32.093Z,8.51
2023-05-19T00:51:04.271Z,8.44
2023-05-19T00:53:32.329Z,8.44
2023-05-19T00:56:00.114Z,8.47
2023-05-19T00:58:30.461Z,8.28
2023-05-19T01:01:03.323Z,8.26
2023-05-19T01:03:35.637Z,8.44
2023-05-19T01:06:06.250Z,8.25
2023-05-19T01:08:33.675Z,8.21
2023-05-19T01:11:00.396Z,8.08
2023-05-19T01:13:30.741Z,8.22
2023-05-19T01:16:19.354Z,8.08
2023-05-19T01:19:01.733Z,8.08
2023-05-19T01:21:50.193Z,8.19
2023-05-19T01:24:39.133Z,8.13
2023-05-19T01:27:20.852Z,8.14
2023-05-19T01:30:27.577Z,8.09
2023-05-19T01:32:58.707Z,8.26
2023-05-19T01:35:26.247Z,8.11
2023-05-19T01:37:56.212Z,7.81
2023-05-19T01:40:24.412Z,8.14
2023-05-19T01:42:53.421Z,8.04
2023-05-19T01:45:21.594Z,8.15
2023-05-19T01:47:51.833Z,8.19
2023-05-19T01:50:18.482Z,8.45
2023-05-19T01:52:44.990Z,8.11
2023-05-19T01:55:11.605Z,8.32
2023-05-19T01:57:46.667Z,8.26
2023-05-19T02:00:13.255Z,8.12
2023-05-19T02:02:48.970Z,7.97
2023-05-19T02:05:35.761Z,8.02
2023-05-19T02:08:10.212Z,8.11
2023-05-19T02:10:37.486Z,8.03
2023-05-19T02:13:05.140Z,8.16
2023-05-19T02:15:39.376Z,7.96
2023-05-19T02:18:06.399Z,7.80
2023-05-19T02:20:33.311Z,8.02
2023-05-19T02:23:00.050Z,7.89
2023-05-19T02:25:27.233Z,7.70
2023-05-19T02:27:54.762Z,7.83
2023-05-19T02:30:21.285Z,7.97
2023-05-19T02:32:48.016Z,8.01
2023-05-19T02:35:14.691Z,7.80
2023-05-19T02:37:41.393Z,7.62
2023-05-19T02:40:08.484Z,7.63
2023-05-19T02:42:34.992Z,7.59
2023-05-19T02:45:01.495Z,7.57
2023-05-19T02:47:28.122Z,7.50
2023-05-19T02:49:54.752Z,7.63
2023-05-19T02:52:21.249Z,7.42
2023-05-19T02:54:47.744Z,7.63
2023-05-19T02:57:14.238Z,7.45
2023-05-19T02:59:41.142Z,7.42
2023-05-19T03:02:07.818Z,7.51
2023-05-19T03:04:41.554Z,7.41
2023-05-19T03:07:10.011Z,7.36
2023-05-19T03:09:39.765Z,7.18
2023-05-19T03:12:07.572Z,7.12
2023-05-19T03:14:38.651Z,7.26
2023-05-19T03:17:07.865Z,7.16
2023-05-19T03:19:34.590Z,7.33
2023-05-19T03:22:01.122Z,7.30
2023-05-19T03:24:27.709Z,7.24
2023-05-19T03:26:54.255Z,7.03
2023-05-19T03:29:21.540Z,7.26
2023-05-19T03:31:48.060Z,7.15
2023-05-19T03:34:14.581Z,7.11
2023-05-19T03:36:41.043Z,7.06
2023-05-19T03:39:07.568Z,7.07
2023-05-19T03:41:34.056Z,7.04
2023-05-19T03:44:01.618Z,6.87
2023-05-19T03:46:28.464Z,6.92
2023-05-19T03:48:55.083Z,7.14
2023-05-19T03:51:21.593Z,7.03
2023-05-19T03:53:48.815Z,7.25
2023-05-19T03:56:16.835Z,7.51
2023-05-19T03:58:44.520Z,7.82
2023-05-19T04:01:11.370Z,7.72
2023-05-19T04:03:37.913Z,7.63
2023-05-19T04:06:04.618Z,7.84
2023-05-19T04:08:31.993Z,8.13
2023-05-19T04:10:58.539Z,8.09
2023-05-19T04:13:25.097Z,7.96
2023-05-19T04:15:51.683Z,7.97
2023-05-19T04:18:18.233Z,8.01
2023-05-19T04:20:44.757Z,8.28
2023-05-19T04:23:11.330Z,8.06
2023-05-19T04:25:38.226Z,8.25
2023-05-19T04:28:04.786Z,8.34
2023-05-19T04:30:31.730Z,8.21
2023-05-19T04:32:59.838Z,8.62
2023-05-19T04:35:26.864Z,8.48
2023-05-19T04:37:56.162Z,8.45
2023-05-19T04:40:23.894Z,8.42
2023-05-19T04:42:54.133Z,8.64
2023-05-19T04:45:20.691Z,8.80
2023-05-19T04:47:48.187Z,8.57
2023-05-19T04:50:16.401Z,8.55
2023-05-19T04:52:45.475Z,8.83
2023-05-19T04:55:13.354Z,8.81
2023-05-19T04:57:40.065Z,9.10
2023-05-19T05:00:09.094Z,9.18
2023-05-19T05:02:36.221Z,9.32
2023-05-19T05:05:03.001Z,9.28
2023-05-19T05:07:31.673Z,9.03
2023-05-19T05:09:59.024Z,9.47
2023-05-19T05:12:25.884Z,9.57
2023-05-19T05:14:52.687Z,9.38
2023-05-19T05:17:19.417Z,9.65
2023-05-19T05:19:46.361Z,9.91
2023-05-19T05:22:13.266Z,10.26
2023-05-19T05:24:40.142Z,10.30
2023-05-19T05:27:08.282Z,10.45
2023-05-19T05:29:35.189Z,10.69
2023-05-19T05:32:01.864Z,10.52
2023-05-19T05:37:02.887Z,10.90
2023-05-19T05:39:29.611Z,11.01
2023-05-19T05:41:56.156Z,10.91
2023-05-19T05:44:22.714Z,11.31
2023-05-19T05:46:49.574Z,11.41
2023-05-19T05:49:16.366Z,11.49
2023-05-19T05:51:54.350Z,11.89
2023-05-19T05:54:29.945Z,11.89
2023-05-19T05:56:57.063Z,12.15
2023-05-19T05:59:23.537Z,12.24
2023-05-19T06:01:50.056Z,12.23
2023-05-19T06:04:16.635Z,12.10
2023-05-19T06:06:43.195Z,12.06
2023-05-19T06:09:09.713Z,12.31
2023-05-19T06:11:36.805Z,12.41
2023-05-19T06:14:03.576Z,12.56
2023-05-19T06:16:30.278Z,12.80
2023-05-19T06:18:56.957Z,12.55
2023-05-19T06:21:23.532Z,12.94
2023-05-19T06:23:49.986Z,13.16
2023-05-19T06:26:16.816Z,12.47
2023-05-19T06:28:43.298Z,12.81
2023-05-19T06:31:09.810Z,13.21
2023-05-19T06:33:36.295Z,13.10
2023-05-19T06:36:02.930Z,13.64
2023-05-19T06:38:29.463Z,13.40
2023-05-19T06:40:55.981Z,13.20
2023-05-19T06:43:25.682Z,13.44
2023-05-19T06:45:52.350Z,13.62
2023-05-19T06:48:18.847Z,13.31
2023-05-19T06:50:46.404Z,13.43
2023-05-19T06:53:13.001Z,13.58
2023-05-19T06:55:50.792Z,13.50
2023-05-19T06:58:24.337Z,13.45
2023-05-19T07:00:51.110Z,14.02
2023-05-19T07:03:17.696Z,13.86
2023-05-19T07:05:44.550Z,14.04
2023-05-19T07:08:11.084Z,14.49
2023-05-19T07:10:37.747Z,13.86
2023-05-19T07:13:04.637Z,14.70
2023-05-19T07:15:31.267Z,14.90
2023-05-19T07:17:58.629Z,14.76
2023-05-19T07:20:25.222Z,14.91
2023-05-19T07:22:52.307Z,15.08
2023-05-19T07:25:18.781Z,14.79
2023-05-19T07:27:45.927Z,14.29
2023-05-19T07:30:12.714Z,15.06
2023-05-19T07:32:39.224Z,15.26
2023-05-19T07:35:06.187Z,14.68
2023-05-19T07:37:32.717Z,15.26
2023-05-19T07:39:59.238Z,15.61
2023-05-19T07:42:25.776Z,15.86
2023-05-19T07:44:52.447Z,15.36
2023-05-19T07:47:19.075Z,15.59
2023-05-19T07:49:45.668Z,16.41
2023-05-19T07:52:12.211Z,16.74
2023-05-19T07:54:38.680Z,16.52
2023-05-19T07:57:05.699Z,15.71
2023-05-19T07:59:32.198Z,16.78
2023-05-19T08:01:58.733Z,17.05
2023-05-19T08:04:25.343Z,16.42
2023-05-19T08:06:53.004Z,17.19
2023-05-19T08:09:20.127Z,16.40
2023-05-19T08:11:50.023Z,16.92
2023-05-19T08:14:16.820Z,16.63
2023-05-19T08:16:43.933Z,16.36
2023-05-19T08:19:10.521Z,16.44
2023-05-19T08:21:37.213Z,16.64
2023-05-19T08:24:04.334Z,17.16
2023-05-19T08:26:30.843Z,16.67
2023-05-19T08:28:57.424Z,16.92
2023-05-19T08:31:25.059Z,17.53
2023-05-19T08:33:51.692Z,17.57
2023-05-19T08:36:18.804Z,17.47
2023-05-19T08:38:45.407Z,17.95
2023-05-19T08:41:12.114Z,18.89
2023-05-19T08:43:39.884Z,18.28
2023-05-19T08:46:08.265Z,18.17
2023-05-19T08:48:35.976Z,19.47
2023-05-19T08:51:18.478Z,19.32
2023-05-19T08:53:49.600Z,18.93
2023-05-19T08:56:24.036Z,19.58
2023-05-19T08:58:51.225Z,18.99
2023-05-19T09:01:18.703Z,19.10
2023-05-19T09:03:50.022Z,19.62
2023-05-19T09:06:17.072Z,19.13
2023-05-19T09:08:44.012Z,18.63
2023-05-19T09:11:10.572Z,19.02
2023-05-19T09:13:37.172Z,19.52
2023-05-19T09:16:03.932Z,19.83
2023-05-19T09:18:31.196Z,19.35
2023-05-19T09:21:00.237Z,18.74
2023-05-19T09:23:31.814Z,19.27
2023-05-19T09:25:58.379Z,20.47
2023-05-19T09:28:33.305Z,20.92
2023-05-19T09:31:08.804Z,19.50
2023-05-19T09:33:46.089Z,18.78
2023-05-19T09:36:13.897Z,19.57
2023-05-19T09:38:40.588Z,19.70
2023-05-19T09:41:08.969Z,20.13
2023-05-19T09:43:35.616Z,19.80
2023-05-19T09:46:12.155Z,20.40
2023-05-19T09:48:40.938Z,21.02
2023-05-19T09:51:10.379Z,19.93
2023-05-19T09:53:36.999Z,21.42
2023-05-19T09:56:03.815Z,20.90
2023-05-19T09:58:37.017Z,19.83
2023-05-19T10:01:04.562Z,19.11
2023-05-19T10:03:33.011Z,19.86
2023-05-19T10:06:01.462Z,19.54
2023-05-19T10:08:30.513Z,20.23
2023-05-19T10:10:57.857Z,20.77
2023-05-19T10:13:24.446Z,20.42
2023-05-19T10:18:23.128Z,20.73
2023-05-19T10:20:50.233Z,18.79
2023-05-19T10:23:16.899Z,19.97
2023-05-19T10:25:43.580Z,20.73
2023-05-19T10:28:14.947Z,21.23
2023-05-19T10:30:43.669Z,20.57
2023-05-19T10:33:13.981Z,20.46
2023-05-19T10:36:11.391Z,20.73
2023-05-19T10:38:56.384Z,21.39
2023-05-19T10:41:28.729Z,21.90
2023-05-19T10:44:01.220Z,20.85
2023-05-19T10:46:28.539Z,20.17
2023-05-19T10:48:55.826Z,20.96
2023-05-19T10:51:30.435Z,21.44
2023-05-19T10:53:58.787Z,20.77
2023-05-19T10:56:36.355Z,20.33
2023-05-19T10:59:03.603Z,22.17
2023-05-19T11:01:34.777Z,21.52
2023-05-19T11:04:12.478Z,20.81
2023-05-19T11:06:40.421Z,20.82
2023-05-19T11:09:20.899Z,22.53
2023-05-19T11:11:53.378Z,22.02
2023-05-19T11:14:39.171Z,21.20
2023-05-19T11:17:13.954Z,20.55
2023-05-19T11:19:42.775Z,20.62
2023-05-19T11:22:11.442Z,20.56
2023-05-19T11:24:44.745Z,20.47
2023-05-19T11:27:27.398Z,20.47
2023-05-19T11:30:15.939Z,20.95
2023-05-19T11:32:42.942Z,21.32
2023-05-19T11:35:10.227Z,21.75
2023-05-19T11:37:37.107Z,22.11
2023-05-19T11:40:07.524Z,21.85
2023-05-19T11:42:36.135Z,21.26
2023-05-19T11:45:03.420Z,21.30
2023-05-19T11:47:38.818Z,21.52
2023-05-19T11:50:13.898Z,21.94
2023-05-19T11:52:44.785Z,21.36
2023-05-19T11:55:18.725Z,21.30
2023-05-19T11:58:05.758Z,21.36
2023-05-19T12:00:37.940Z,21.36
2023-05-19T12:03:05.147Z,22.06
2023-05-19T12:05:34.856Z,21.07
2023-05-19T12:08:04.238Z,22.30
2023-05-19T12:10:31.614Z,23.02
2023-05-19T12:12:58.606Z,22.18
2023-05-19T12:15:25.650Z,22.48
2023-05-19T12:17:56.719Z,20.73
2023-05-19T12:20:23.875Z,21.61
2023-05-19T12:22:51.283Z,22.72
2023-05-19T12:25:18.380Z,21.18
2023-05-19T12:27:44.971Z,21.74
2023-05-19T12:30:13.590Z,22.09
2023-05-19T12:32:40.140Z,21.74
2023-05-19T12:35:07.351Z,21.43
2023-05-19T12:37:34.926Z,22.79
2023-05-19T12:40:02.349Z,22.18
2023-05-19T12:42:32.341Z,22.30
2023-05-19T12:45:01.543Z,21.68
2023-05-19T12:47:33.284Z,22.37
2023-05-19T12:49:59.801Z,21.77
2023-05-19T12:52:29.073Z,22.03
2023-05-19T12:55:09.301Z,22.48
2023-05-19T12:57:49.931Z,20.93
2023-05-19T13:00:22.801Z,21.61
2023-05-19T13:03:08.734Z,21.83
2023-05-19T13:05:37.049Z,21.76
2023-05-19T13:08:09.097Z,23.01
2023-05-19T13:10:37.040Z,21.65
2023-05-19T13:13:05.098Z,21.30
2023-05-19T13:15:37.761Z,21.23
2023-05-19T13:18:06.329Z,21.89
2023-05-19T13:20:33.512Z,21.39
2023-05-19T13:23:00.458Z,20.75
2023-05-19T13:25:27.483Z,21.14
2023-05-19T13:27:54.533Z,21.36
2023-05-19T13:30:21.991Z,21.98
2023-05-19T13:32:48.580Z,21.93
2023-05-19T13:35:15.844Z,22.08
2023-05-19T13:37:42.770Z,21.23
2023-05-19T13:40:10.011Z,21.68
2023-05-19T13:42:36.903Z,22.43
2023-05-19T13:45:04.078Z,22.04
2023-05-19T13:47:30.750Z,22.27
2023-05-19T13:49:57.665Z,21.28
2023-05-19T13:52:24.224Z,20.57
2023-05-19T13:54:50.836Z,20.49
2023-05-19T13:57:17.341Z,20.62
2023-05-19T13:59:57.633Z,20.54
2023-05-19T14:02:29.877Z,20.69
2023-05-19T14:04:56.843Z,20.21
2023-05-19T14:07:23.637Z,21.30
2023-05-19T14:09:51.224Z,20.89
2023-05-19T14:12:17.925Z,20.96
2023-05-19T14:14:44.672Z,19.90
2023-05-19T14:17:11.907Z,21.24
2023-05-19T14:19:38.416Z,19.91
2023-05-19T14:22:05.101Z,20.57
2023-05-19T14:24:31.733Z,19.90
2023-05-19T14:26:58.204Z,19.59
2023-05-19T14:29:24.687Z,20.44
2023-05-19T14:31:51.215Z,20.22
2023-05-19T14:34:21.000Z,20.53
2023-05-19T14:36:48.740Z,20.19
2023-05-19T14:39:15.613Z,19.50
2023-05-19T14:41:42.276Z,19.22
2023-05-19T14:44:08.835Z,19.21
2023-05-19T14:46:35.549Z,19.37
2023-05-19T14:49:03.277Z,19.69
2023-05-19T14:51:29.908Z,19.32
2023-05-19T14:53:56.448Z,19.07
2023-05-19T14:56:23.117Z,18.43
2023-05-19T14:58:49.599Z,19.02
2023-05-19T15:01:16.286Z,18.97
2023-05-19T15:03:42.889Z,18.93
2023-05-19T15:06:10.731Z,19.54
2023-05-19T15:08:41.471Z,19.51
2023-05-19T15:11:08.230Z,19.63
2023-05-19T15:13:34.823Z,18.99
2023-05-19T15:16:16.315Z,18.76
2023-05-19T15:18:44.463Z,18.60
2023-05-19T15:21:11.039Z,18.77
2023-05-19T15:23:37.517Z,19.06
2023-05-19T15:26:04.138Z,18.84
2023-05-19T15:28:30.808Z,18.83
2023-05-19T15:30:57.354Z,18.80
2023-05-19T15:33:23.916Z,18.79
2023-05-19T15:35:52.133Z,19.22
2023-05-19T15:38:20.575Z,19.15
2023-05-19T15:40:47.197Z,19.00
2023-05-19T15:43:14.037Z,18.96
2023-05-19T15:45:40.975Z,18.57
2023-05-19T15:48:07.683Z,18.90
2023-05-19T15:50:34.562Z,18.80
2023-05-19T15:53:01.331Z,18.68
2023-05-19T15:55:28.447Z,18.88
2023-05-19T15:57:55.852Z,19.11
2023-05-19T16:00:22.662Z,18.89
2023-05-19T16:02:49.344Z,18.73
2023-05-19T16:05:16.827Z,18.91
2023-05-19T16:07:44.223Z,18.86
2023-05-19T16:10:10.885Z,18.35
2023-05-19T16:12:37.997Z,18.54
2023-05-19T16:15:04.966Z,18.78
2023-05-19T16:17:32.243Z,18.37
2023-05-19T16:19:58.963Z,19.46
2023-05-19T16:22:26.183Z,18.87
2023-05-19T16:24:52.954Z,18.42
2023-05-19T16:27:19.452Z,18.26
2023-05-19T16:29:45.937Z,18.49
2023-05-19T16:32:12.870Z,18.24
2023-05-19T16:34:39.759Z,18.71
2023-05-19T16:37:07.082Z,18.35
2023-05-19T16:39:36.058Z,18.19
2023-05-19T16:42:04.109Z,17.82
2023-05-19T16:44:30.975Z,18.09
2023-05-19T16:46:58.337Z,18.00
2023-05-19T16:49:25.984Z,18.12
2023-05-19T16:51:54.405Z,18.12
2023-05-19T16:54:21.371Z,18.48
2023-05-19T16:56:48.856Z,18.67
2023-05-19T16:59:15.911Z,18.64
2023-05-19T17:01:42.511Z,18.30
2023-05-19T17:04:09.259Z,18.39
2023-05-19T17:06:35.948Z,18.60
2023-05-19T17:09:02.530Z,18.33
2023-05-19T17:11:29.081Z,18.23
2023-05-19T17:13:55.688Z,17.86
2023-05-19T17:16:23.495Z,17.87
2023-05-19T17:18:50.145Z,17.58
2023-05-19T17:21:17.721Z,17.84
2023-05-19T17:23:44.383Z,17.91
2023-05-19T17:26:12.139Z,18.16
2023-05-19T17:28:38.654Z,18.10
2023-05-19T17:31:12.338Z,17.95
2023-05-19T17:33:38.953Z,17.46
2023-05-19T17:36:06.275Z,17.47
2023-05-19T17:38:32.939Z,17.86
2023-05-19T17:41:00.128Z,17.76
2023-05-19T17:43:27.056Z,17.57
2023-05-19T17:45:53.996Z,17.87
2023-05-19T17:48:20.918Z,17.72
2023-05-19T17:50:48.161Z,17.51
2023-05-19T17:53:16.039Z,17.69
2023-05-19T17:55:49.237Z,17.85
2023-05-19T17:58:16.168Z,17.90
2023-05-19T18:00:42.900Z,17.85
2023-05-19T18:03:09.884Z,17.79
2023-05-19T18:05:37.829Z,17.64
2023-05-19T18:08:07.249Z,17.86
2023-05-19T18:10:36.627Z,17.44
2023-05-19T18:13:06.907Z,17.59
2023-05-19T18:15:33.579Z,17.33
2023-05-19T18:18:00.714Z,17.53
2023-05-19T18:20:27.340Z,17.56
2023-05-19T18:22:53.899Z,16.86
2023-05-19T18:25:20.971Z,16.83
2023-05-19T18:27:47.552Z,16.91
2023-05-19T18:30:14.121Z,16.72
2023-05-19T18:32:40.812Z,17.01
2023-05-19T18:35:08.346Z,16.97
2023-05-19T18:37:35.111Z,16.84
2023-05-19T18:42:28.216Z,16.57
2023-05-19T18:44:54.705Z,16.52
2023-05-19T18:47:22.778Z,16.62
2023-05-19T18:49:49.346Z,16.54
2023-05-19T18:52:15.896Z,16.27
2023-05-19T18:54:42.414Z,16.05
2023-05-19T18:57:09.180Z,16.22
2023-05-19T18:59:35.761Z,15.62
2023-05-19T19:02:03.117Z,15.93
2023-05-19T19:04:30.580Z,15.75
2023-05-19T19:06:57.139Z,15.66
2023-05-19T19:09:23.626Z,15.44
2023-05-19T19:11:50.136Z,15.54
2023-05-19T19:14:16.609Z,15.19
2023-05-19T19:16:43.121Z,15.40
2023-05-19T19:19:10.012Z,15.09
2023-05-19T19:21:36.866Z,15.07
2023-05-19T19:24:04.063Z,14.81
2023-05-19T19:26:30.592Z,14.74
2023-05-19T19:28:57.231Z,15.02
2023-05-19T19:31:25.865Z,14.90
2023-05-19T19:33:52.406Z,14.62
2023-05-19T19:36:18.898Z,14.93
2023-05-19T19:38:45.423Z,14.54
2023-05-19T19:41:11.984Z,14.50
2023-05-19T19:43:39.210Z,14.46
2023-05-19T19:46:07.101Z,14.48
2023-05-19T19:48:33.664Z,14.10
2023-05-19T19:51:00.423Z,14.20
2023-05-19T19:53:26.992Z,14.10
2023-05-19T19:56:01.093Z,14.06
2023-05-19T19:58:28.550Z,14.00
2023-05-19T20:01:03.228Z,14.11
2023-05-19T20:03:30.066Z,14.03
2023-05-19T20:05:57.030Z,13.92
2023-05-19T20:08:24.536Z,13.84
2023-05-19T20:10:51.070Z,14.06
2023-05-19T20:13:18.496Z,13.90
2023-05-19T20:15:46.176Z,13.67
2023-05-19T20:18:12.790Z,13.50
2023-05-19T20:20:39.734Z,13.35
2023-05-19T20:23:07.624Z,13.55
2023-05-19T20:25:34.745Z,13.74
2023-05-19T20:28:02.133Z,13.46
2023-05-19T20:30:28.720Z,13.52
2023-05-19T20:32:55.245Z,13.42
2023-05-19T20:35:22.434Z,13.48
2023-05-19T20:37:49.466Z,13.45
2023-05-19T20:40:15.981Z,13.28
2023-05-19T20:42:42.621Z,13.42
2023-05-19T20:45:09.205Z,13.09
2023-05-19T20:47:35.851Z,13.16
2023-05-19T20:50:02.338Z,13.10
2023-05-19T20:52:28.969Z,12.98
2023-05-19T20:54:55.449Z,13.13
2023-05-19T20:57:21.943Z,13.14
2023-05-19T20:59:49.815Z,12.88
2023-05-19T21:02:16.362Z,13.04
2023-05-19T21:04:42.943Z,12.73
2023-05-19T21:07:09.540Z,12.63
2023-05-19T21:09:36.263Z,12.74
2023-05-19T21:12:02.929Z,12.85
2023-05-19T21:14:29.441Z,12.78
2023-05-19T21:16:56.943Z,12.72
2023-05-19T21:19:23.581Z,12.54
2023-05-19T21:21:50.135Z,12.80
2023-05-19T21:24:16.616Z,12.73
2023-05-19T21:26:43.414Z,12.59
2023-05-19T21:29:10.384Z,12.48
2023-05-19T21:31:37.400Z,12.47
2023-05-19T21:34:04.696Z,12.36
2023-05-19T21:36:31.807Z,12.42
2023-05-19T21:38:58.345Z,12.35
2023-05-19T21:41:24.869Z,12.22
2023-05-19T21:43:51.465Z,12.26
2023-05-19T21:46:18.097Z,11.93
2023-05-19T21:48:45.396Z,11.92
2023-05-19T21:51:11.949Z,11.99
2023-05-19T21:53:39.513Z,11.93
2023-05-19T21:56:06.294Z,12.09
2023-05-19T21:58:32.957Z,12.13
2023-05-19T22:01:00.830Z,12.09
2023-05-19T22:03:27.695Z,12.08
2023-05-19T22:05:56.208Z,12.32
2023-05-19T22:08:23.414Z,12.26
2023-05-19T22:10:51.753Z,12.27
2023-05-19T22:13:19.054Z,12.24
2023-05-19T22:15:45.843Z,12.28
2023-05-19T22:18:12.810Z,12.22
2023-05-19T22:20:39.594Z,12.37
2023-05-19T22:23:06.180Z,12.20
2023-05-19T22:25:33.049Z,12.22
2023-05-19T22:28:01.245Z,12.06
2023-05-19T22:30:27.851Z,11.89
2023-05-19T22:32:54.398Z,11.79
2023-05-19T22:35:21.517Z,11.89
2023-05-19T22:37:48.100Z,11.93
2023-05-19T22:40:14.651Z,11.84
2023-05-19T22:42:41.313Z,12.04
2023-05-19T22:45:10.672Z,11.89
2023-05-19T22:47:37.236Z,11.71
2023-05-19T22:50:04.128Z,11.80
2023-05-19T22:52:30.688Z,11.50
2023-05-19T22:54:57.152Z,11.43
2023-05-19T22:57:23.641Z,11.45
2023-05-19T22:59:50.110Z,11.44
2023-05-19T23:02:16.750Z,11.42
2023-05-19T23:04:43.915Z,11.69
2023-05-19T23:07:10.637Z,11.29
2023-05-19T23:09:37.138Z,11.27
2023-05-19T23:12:03.800Z,11.23
2023-05-19T23:14:31.563Z,10.94
2023-05-19T23:16:58.126Z,11.07
2023-05-19T23:19:24.713Z,11.10
2023-05-19T23:21:51.344Z,10.93
2023-05-19T23:24:17.864Z,10.95
2023-05-19T23:26:44.483Z,11.18
2023-05-19T23:29:12.924Z,11.06
2023-05-19T23:31:41.070Z,11.13
2023-05-19T23:34:07.843Z,11.18
2023-05-19T23:36:34.412Z,11.03
2023-05-19T23:39:01.253Z,11.16
2023-05-19T23:41:27.991Z,10.98
2023-05-19T23:43:54.580Z,10.84
2023-05-19T23:46:21.251Z,10.77
2023-05-19T23:48:47.826Z,10.66
2023-05-19T23:51:14.371Z,10.67
2023-05-19T23:53:40.880Z,10.52
2023-05-19T23:56:08.737Z,10.49
2023-05-19T23:58:35.331Z,10.25
